Time;durP1;ratioP1;P1;durP2;ratioP2;P2;SDS_P1;SDS_P2;PMS_P1;PMS_P2;Temp;Humidity;BMP_temperature;BMP_pressure;BME280_temperature;BME280_humidity;BME280_pressure;Samples;Min_cycle;Max_cycle;Signal;HPM_P1;HPM_P2
2024/01/07 00:01:49;;;;;;;;;14.00;11.00;;;;;-143.90;100.00;76247.41;4847425;28;103618;-73
2024/01/07 00:04:16;;;;;;;;;11.33;10.67;;;;;-143.90;100.00;76245.34;4851817;28;103027;-72
2024/01/07 00:06:43;;;;;;;;;14.67;14.00;;;;;-143.90;100.00;76249.47;4849079;28;102083;-73
2024/01/07 00:09:12;;;;;;;;;14.33;14.00;;;;;-143.90;100.00;76255.69;4841210;28;102375;-74
2024/01/07 00:11:40;;;;;;;;;27.00;20.33;;;;;-143.90;100.00;76284.63;4847593;28;103483;-74
2024/01/07 00:14:07;;;;;;;;;19.67;17.67;;;;;-143.90;100.00;76278.44;4852458;28;101981;-73
2024/01/07 00:16:34;;;;;;;;;18.33;17.00;;;;;-143.90;100.00;76280.50;4846759;28;107102;-74
2024/01/07 00:19:00;;;;;;;;;29.33;16.33;;;;;-143.90;100.00;76284.63;4851630;28;103718;-73
2024/01/07 00:21:28;;;;;;;;;21.33;18.67;;;;;-143.90;100.00;76301.19;4851920;28;104866;-74
2024/01/07 00:23:55;;;;;;;;;17.67;15.00;;;;;-143.90;100.00;76297.03;4854206;28;102093;-73
2024/01/07 00:26:22;;;;;;;;;26.33;17.67;;;;;-143.90;100.00;76319.78;4847957;28;101946;-72
2024/01/07 00:28:48;;;;;;;;;29.67;20.33;;;;;-143.90;100.00;76317.72;4847485;28;106637;-71
2024/01/07 00:31:15;;;;;;;;;20.67;18.33;;;;;-143.90;100.00;76317.72;4856875;28;105224;-71
2024/01/07 00:33:42;;;;;;;;;22.33;21.00;;;;;-143.90;100.00;76326.00;4832661;28;102035;-72
2024/01/07 00:36:09;;;;;;;;;16.67;16.33;;;;;-143.90;100.00;76315.66;4852576;28;103060;-72
2024/01/07 00:38:36;;;;;;;;;21.00;14.00;;;;;-143.90;100.00;76321.84;4849420;28;102198;-71
2024/01/07 00:41:03;;;;;;;;;24.33;16.33;;;;;-143.90;100.00;76330.13;4853284;28;104354;-72
2024/01/07 00:43:29;;;;;;;;;17.00;14.67;;;;;-143.90;100.00;76330.13;4852702;28;103626;-73
2024/01/07 00:45:56;;;;;;;;;20.67;14.33;;;;;-143.90;100.00;76340.47;4852815;28;101776;-72
2024/01/07 00:48:23;;;;;;;;;16.33;15.00;;;;;-143.90;100.00;76334.25;4829098;28;102128;-72
2024/01/07 00:50:50;;;;;;;;;21.67;18.33;;;;;-143.90;100.00;76363.22;4852265;28;103468;-73
2024/01/07 00:53:16;;;;;;;;;16.33;12.00;;;;;-143.90;100.00;76344.59;4856081;28;101893;-72
2024/01/07 00:55:43;;;;;;;;;15.00;11.00;;;;;-143.90;100.00;76348.75;4856009;28;103908;-71
2024/01/07 00:58:10;;;;;;;;;18.33;15.33;;;;;-143.90;100.00;76346.69;4858825;28;101675;-72
2024/01/07 01:00:39;;;;;;;;;18.67;14.33;;;;;-143.90;100.00;76361.16;4831310;28;103778;-73
2024/01/07 01:03:06;;;;;;;;;17.33;11.33;;;;;-143.90;100.00;76357.00;4835424;28;102284;-72
2024/01/07 01:05:33;;;;;;;;;17.67;13.33;;;;;-143.90;100.00;76359.09;4853305;28;101909;-73
2024/01/07 01:08:00;;;;;;;;;15.67;14.00;;;;;-143.90;100.00;76361.16;4846869;28;103342;-71
2024/01/07 01:10:26;;;;;;;;;19.33;14.00;;;;;-143.90;100.00;76363.22;4849225;28;104621;-72
2024/01/07 01:12:54;;;;;;;;;15.67;15.00;;;;;-143.90;100.00;76361.16;4819903;28;101907;-72
2024/01/07 01:15:21;;;;;;;;;19.67;15.00;;;;;-143.90;100.00;76373.56;4854091;28;102032;-72
2024/01/07 01:17:47;;;;;;;;;17.00;15.00;;;;;-143.90;100.00;76379.75;4845586;28;102858;-72
2024/01/07 01:20:14;;;;;;;;;19.33;18.00;;;;;-143.90;100.00;76396.31;4850228;28;103128;-72
2024/01/07 01:22:41;;;;;;;;;20.67;14.67;;;;;-143.90;100.00;76400.44;4851862;28;103379;-72
2024/01/07 01:25:08;;;;;;;;;17.00;13.33;;;;;-143.90;100.00;76388.03;4844304;28;101919;-71
2024/01/07 01:27:34;;;;;;;;;23.33;18.00;;;;;-143.90;100.00;76406.66;4829378;28;102056;-72
2024/01/07 01:30:01;;;;;;;;;15.00;13.33;;;;;-143.90;100.00;76404.56;4818753;28;103740;-72
2024/01/07 01:32:28;;;;;;;;;14.00;12.33;;;;;-143.90;100.00;76396.31;4803089;28;103457;-74
2024/01/07 01:34:55;;;;;;;;;14.33;12.33;;;;;-143.90;100.00;76400.44;4840454;28;103003;-71
2024/01/07 01:37:23;;;;;;;;;15.67;12.67;;;;;-143.90;100.00;76425.25;4833651;28;103380;-72
2024/01/07 01:39:50;;;;;;;;;17.67;15.00;;;;;-143.90;100.00;76429.41;4828395;28;104782;-74
2024/01/07 01:42:16;;;;;;;;;14.00;13.00;;;;;-143.90;100.00;76439.75;4851774;28;102874;-74
2024/01/07 01:44:43;;;;;;;;;16.67;12.33;;;;;-143.90;100.00;76445.94;4850693;28;101961;-74
2024/01/07 01:47:10;;;;;;;;;18.33;15.33;;;;;-143.90;100.00;76452.16;4856874;28;101748;-74
2024/01/07 01:49:38;;;;;;;;;11.67;8.00;;;;;-143.90;100.00;76448.00;4854679;28;102765;-74
2024/01/07 01:52:05;;;;;;;;;17.33;13.00;;;;;-143.90;100.00;76464.56;4850781;28;102171;-74
2024/01/07 01:54:32;;;;;;;;;10.67;9.33;;;;;-143.90;100.00;76445.94;4841916;28;102218;-74
2024/01/07 01:56:59;;;;;;;;;17.00;8.00;;;;;-143.90;100.00;76450.06;4847918;28;102306;-74
2024/01/07 01:59:28;;;;;;;;;10.00;8.00;;;;;-143.90;100.00;76441.81;4851303;28;103187;-72
2024/01/07 02:01:55;;;;;;;;;10.67;10.00;;;;;-143.90;100.00;76429.41;4856385;28;103516;-72
2024/01/07 02:04:22;;;;;;;;;12.33;9.67;;;;;-143.90;100.00;76431.47;4850187;28;102398;-72
2024/01/07 02:06:49;;;;;;;;;13.00;9.33;;;;;-143.90;100.00;76429.41;4856372;28;101913;-73
2024/01/07 02:09:16;;;;;;;;;11.33;8.67;;;;;-143.90;100.00;76429.41;4854837;28;103663;-73
2024/01/07 02:11:43;;;;;;;;;8.00;6.33;;;;;-143.90;100.00;76437.66;4857374;28;101981;-72
2024/01/07 02:14:09;;;;;;;;;10.33;7.67;;;;;-143.90;100.00;76445.94;4853179;28;101663;-72
2024/01/07 02:16:36;;;;;;;;;7.67;7.00;;;;;-143.90;100.00;76443.88;4852776;28;102011;-72
2024/01/07 02:19:03;;;;;;;;;11.00;8.00;;;;;-143.90;100.00;76450.06;4855626;28;103505;-72
2024/01/07 02:21:29;;;;;;;;;8.00;5.00;;;;;-143.90;100.00;76450.06;4855739;28;103252;-72
2024/01/07 02:23:56;;;;;;;;;6.33;5.00;;;;;-143.90;100.00;76448.00;4857646;28;101588;-72
2024/01/07 02:26:24;;;;;;;;;8.00;5.00;;;;;-143.90;100.00;76460.41;4848172;28;102974;-72
2024/01/07 02:28:51;;;;;;;;;7.33;5.67;;;;;-143.90;100.00;76470.75;4852427;28;102840;-72
2024/01/07 02:31:17;;;;;;;;;10.00;10.00;;;;;-143.90;100.00;76491.44;4856387;28;102750;-72
2024/01/07 02:33:44;;;;;;;;;5.67;5.67;;;;;-143.90;100.00;76483.16;4853100;28;101737;-72
2024/01/07 02:36:11;;;;;;;;;5.33;4.67;;;;;-143.90;100.00;76481.09;4859228;28;101622;-71
2024/01/07 02:38:37;;;;;;;;;5.67;2.00;;;;;-143.90;100.00;76497.63;4849246;28;103207;-72
2024/01/07 02:41:04;;;;;;;;;5.33;2.67;;;;;-143.90;100.00;76491.44;4857624;28;101926;-71
2024/01/07 02:43:31;;;;;;;;;4.00;2.00;;;;;-143.90;100.00;76491.44;4846999;28;101697;-72
2024/01/07 02:45:58;;;;;;;;;8.33;7.00;;;;;-143.90;100.00;76507.97;4862855;28;102183;-71
2024/01/07 02:48:24;;;;;;;;;10.00;8.00;;;;;-143.90;100.00;76516.25;4850133;28;107250;-71
2024/01/07 02:50:51;;;;;;;;;10.67;8.00;;;;;-143.90;100.00;76503.84;4856209;28;102175;-73
2024/01/07 02:53:18;;;;;;;;;11.00;7.67;;;;;-143.90;100.00;76522.47;4857837;28;101837;-73
2024/01/07 02:55:45;;;;;;;;;15.33;10.67;;;;;-143.90;100.00;76524.53;4859055;28;101850;-72
2024/01/07 02:58:11;;;;;;;;;15.33;11.00;;;;;-143.90;100.00;76526.59;4856967;28;103736;-72
2024/01/07 03:00:38;;;;;;;;;10.00;7.00;;;;;-143.90;100.00;76520.38;4845581;28;102013;-72
2024/01/07 03:03:05;;;;;;;;;9.67;5.00;;;;;-143.90;100.00;76532.78;4851642;28;101786;-71
2024/01/07 03:05:32;;;;;;;;;7.67;7.67;;;;;-143.90;100.00;76528.66;4851681;28;102044;-71
2024/01/07 03:08:00;;;;;;;;;8.00;6.00;;;;;-143.90;100.00;76541.06;4852085;28;102933;-72
2024/01/07 03:10:27;;;;;;;;;8.00;8.00;;;;;-143.90;100.00;76541.06;4848704;28;102918;-72
2024/01/07 03:12:53;;;;;;;;;11.00;7.33;;;;;-143.90;100.00;76541.06;4836865;28;102742;-72
2024/01/07 03:15:20;;;;;;;;;10.67;10.33;;;;;-143.90;100.00;76541.06;4850019;28;102825;-72
2024/01/07 03:17:47;;;;;;;;;6.00;3.67;;;;;-143.90;100.00;76545.22;4852773;28;103456;-71
2024/01/07 03:20:14;;;;;;;;;12.00;9.00;;;;;-143.90;100.00;76549.34;4854202;28;102022;-71
2024/01/07 03:22:40;;;;;;;;;8.33;7.00;;;;;-143.90;100.00;76547.28;4853866;28;101819;-71
2024/01/07 03:25:08;;;;;;;;;10.00;10.00;;;;;-143.90;100.00;76536.94;4857151;28;101730;-72
2024/01/07 03:27:35;;;;;;;;;10.33;8.00;;;;;-143.90;100.00;76561.75;4856516;28;103672;-72
2024/01/07 03:30:02;;;;;;;;;12.00;9.67;;;;;-143.90;100.00;76555.53;4859523;28;102155;-72
2024/01/07 03:32:28;;;;;;;;;6.00;5.33;;;;;-143.90;100.00;76559.69;4834052;28;102699;-71
2024/01/07 03:34:55;;;;;;;;;8.33;8.33;;;;;-143.90;100.00;76553.47;4852514;28;101703;-72
2024/01/07 03:37:22;;;;;;;;;7.00;5.67;;;;;-143.90;100.00;76559.69;4854726;28;103399;-71
2024/01/07 03:39:49;;;;;;;;;18.33;12.00;;;;;-143.90;100.00;76565.88;4850342;28;105032;-72
2024/01/07 03:42:16;;;;;;;;;4.00;4.00;;;;;-143.90;100.00;76551.41;4833384;28;101919;-71
2024/01/07 03:44:43;;;;;;;;;8.00;8.00;;;;;-143.90;100.00;76555.53;4848381;28;101930;-71
2024/01/07 03:47:10;;;;;;;;;6.67;5.33;;;;;-143.90;100.00;76557.63;4833646;28;103059;-71
2024/01/07 03:49:37;;;;;;;;;7.00;4.00;;;;;-143.90;100.00;76549.34;4853365;28;103660;-72
2024/01/07 03:52:06;;;;;;;;;14.00;10.00;;;;;-143.90;100.00;76576.22;4843547;28;103576;-70
2024/01/07 03:54:33;;;;;;;;;7.00;5.67;;;;;-143.90;100.00;76570.03;4840116;28;102911;-71
2024/01/07 03:57:00;;;;;;;;;7.00;6.67;;;;;-143.90;100.00;76570.03;4850694;28;103358;-72
2024/01/07 03:59:28;;;;;;;;;7.00;6.00;;;;;-143.90;100.00;76565.88;4852767;28;102478;-73
2024/01/07 04:01:56;;;;;;;;;10.00;7.00;;;;;-143.90;100.00;76576.22;4843966;28;103775;-72
2024/01/07 04:04:23;;;;;;;;;12.33;5.00;;;;;-143.90;100.00;76574.16;4844129;28;101652;-72
2024/01/07 04:06:50;;;;;;;;;7.00;5.67;;;;;-143.90;100.00;76578.31;4850834;28;102345;-71
2024/01/07 04:09:17;;;;;;;;;4.00;4.00;;;;;-143.90;100.00;76580.38;4849685;28;102023;-71
2024/01/07 04:11:44;;;;;;;;;4.00;2.00;;;;;-143.90;100.00;76574.16;4843480;28;101796;-72
2024/01/07 04:14:14;;;;;;;;;5.00;4.33;;;;;-143.90;100.00;76590.72;4853626;28;101977;-70
2024/01/07 04:16:40;;;;;;;;;11.33;7.00;;;;;-143.90;100.00;76598.97;4849518;28;102395;-72
2024/01/07 04:19:07;;;;;;;;;13.00;8.00;;;;;-143.90;100.00;76607.25;4850184;28;103243;-71
2024/01/07 04:21:35;;;;;;;;;7.33;5.00;;;;;-143.90;100.00;76598.97;4852576;28;103868;-71
2024/01/07 04:24:02;;;;;;;;;8.33;7.00;;;;;-143.90;100.00;76598.97;4845318;28;102731;-72
2024/01/07 04:26:29;;;;;;;;;4.67;4.00;;;;;-143.90;100.00;76603.13;4848555;28;103615;-71
2024/01/07 04:28:56;;;;;;;;;11.67;6.33;;;;;-143.90;100.00;76611.38;4834972;28;102782;-72
2024/01/07 04:31:23;;;;;;;;;8.00;7.00;;;;;-143.90;100.00;76603.13;4854519;28;101691;-71
2024/01/07 04:33:50;;;;;;;;;5.33;4.00;;;;;-143.90;100.00;76598.97;4838255;28;101941;-71
2024/01/07 04:36:17;;;;;;;;;4.00;2.33;;;;;-143.90;100.00;76592.78;4830871;28;102989;-70
2024/01/07 04:38:44;;;;;;;;;6.00;3.00;;;;;-143.90;100.00;76601.03;4829922;28;102065;-71
2024/01/07 04:41:11;;;;;;;;;3.67;3.67;;;;;-143.90;100.00;76603.13;4849211;28;101775;-71
2024/01/07 04:43:37;;;;;;;;;4.00;2.33;;;;;-143.90;100.00;76607.25;4854751;28;102129;-70
2024/01/07 04:46:05;;;;;;;;;8.00;7.00;;;;;-143.90;100.00;76615.53;4854588;28;104930;-71
2024/01/07 04:48:31;;;;;;;;;4.00;4.00;;;;;-143.90;100.00;76607.25;4831221;28;103765;-72
2024/01/07 04:50:58;;;;;;;;;9.67;7.00;;;;;-143.90;100.00;76603.13;4858527;28;101631;-71
2024/01/07 04:53:25;;;;;;;;;1.00;1.00;;;;;-143.90;100.00;76623.78;4847287;28;102731;-70
2024/01/07 04:55:52;;;;;;;;;4.00;4.00;;;;;-143.90;100.00;76625.88;4829822;28;102612;-71
2024/01/07 04:58:19;;;;;;;;;4.00;1.33;;;;;-143.90;100.00;76613.47;4850623;28;101945;-71
2024/01/07 05:00:46;;;;;;;;;3.33;2.33;;;;;-143.90;100.00;76646.53;4855015;28;101775;-72
2024/01/07 05:03:13;;;;;;;;;2.33;2.00;;;;;-143.90;100.00;76642.41;4853907;28;102088;-71
2024/01/07 05:05:40;;;;;;;;;10.00;5.00;;;;;-143.90;100.00;76665.16;4841923;28;102940;-72
2024/01/07 05:08:07;;;;;;;;;4.67;4.00;;;;;-143.90;100.00;76658.97;4839623;28;101864;-72
2024/01/07 05:10:34;;;;;;;;;8.67;7.67;;;;;-143.90;100.00;76673.44;4844672;28;101888;-72
2024/01/07 05:13:04;;;;;;;;;5.33;4.00;;;;;-143.90;100.00;76683.78;4854724;28;103288;-72
2024/01/07 05:15:32;;;;;;;;;6.00;4.00;;;;;-143.90;100.00;76689.97;4850125;28;102909;-73
2024/01/07 05:18:23;;;;;;;;;2.33;2.33;;;;;-143.90;100.00;76679.63;4768464;29;102447;-74
2024/01/07 05:20:50;;;;;;;;;6.33;4.33;;;;;-143.90;100.00;76667.22;4789176;29;101931;-72
2024/01/07 05:23:17;;;;;;;;;2.33;2.33;;;;;-143.90;100.00;76677.56;4794833;29;102063;-73
2024/01/07 05:25:45;;;;;;;;;5.33;3.33;;;;;-143.90;100.00;76667.22;4790427;29;102676;-72
2024/01/07 05:28:13;;;;;;;;;3.00;1.00;;;;;-143.90;100.00;76665.16;4798379;28;103134;-72
2024/01/07 05:30:41;;;;;;;;;3.00;2.33;;;;;-143.90;100.00;76656.88;4792923;28;103482;-71
2024/01/07 05:33:08;;;;;;;;;7.33;4.00;;;;;-143.90;100.00;76669.28;4806571;28;102299;-73
2024/01/07 05:35:35;;;;;;;;;6.00;6.00;;;;;-143.90;100.00;76681.72;4824066;28;107717;-72
2024/01/07 05:38:02;;;;;;;;;5.00;4.00;;;;;-143.90;100.00;76679.63;4833885;28;101999;-70
2024/01/07 05:40:29;;;;;;;;;5.00;4.33;;;;;-143.90;100.00;76675.50;4835274;28;102149;-71
2024/01/07 05:42:55;;;;;;;;;6.00;6.00;;;;;-143.90;100.00;76683.78;4844953;28;102004;-71
2024/01/07 05:45:23;;;;;;;;;5.67;5.33;;;;;-143.90;100.00;76718.94;4853543;28;102573;-70
2024/01/07 05:47:50;;;;;;;;;6.00;3.67;;;;;-143.90;100.00;76708.59;4854676;28;103467;-72
2024/01/07 05:50:18;;;;;;;;;7.00;4.00;;;;;-143.90;100.00;76710.66;4844574;28;102832;-70
2024/01/07 05:52:45;;;;;;;;;4.67;1.67;;;;;-143.90;100.00;76714.78;4858187;28;101989;-70
2024/01/07 05:55:12;;;;;;;;;4.67;4.00;;;;;-143.90;100.00;76714.78;4852882;28;103665;-71
2024/01/07 05:57:39;;;;;;;;;4.00;3.00;;;;;-143.90;100.00;76714.78;4856003;28;101918;-71
2024/01/07 06:00:07;;;;;;;;;4.00;4.00;;;;;-143.90;100.00;76723.06;4855645;28;101487;-71
2024/01/07 06:02:34;;;;;;;;;4.00;3.00;;;;;-143.90;100.00;76714.78;4847871;28;101993;-72
2024/01/07 06:05:02;;;;;;;;;7.67;5.33;;;;;-143.90;100.00;76725.13;4859658;28;102619;-70
2024/01/07 06:07:30;;;;;;;;;5.33;4.00;;;;;-143.90;100.00;76721.00;4857391;28;102963;-71
2024/01/07 06:09:56;;;;;;;;;4.00;4.00;;;;;-143.90;100.00;76725.13;4851507;28;103571;-70
2024/01/07 06:12:23;;;;;;;;;1.67;1.00;;;;;-143.90;100.00;76716.88;4840369;28;102273;-71
2024/01/07 06:14:50;;;;;;;;;4.00;3.33;;;;;-143.90;100.00;76716.88;4849703;28;103477;-70
2024/01/07 06:17:17;;;;;;;;;11.00;6.67;;;;;-143.90;100.00;76727.22;4848576;28;101933;-71
2024/01/07 06:19:43;;;;;;;;;7.00;3.00;;;;;-143.90;100.00;76731.34;4853739;28;102705;-71
2024/01/07 06:22:10;;;;;;;;;4.00;3.00;;;;;-143.90;100.00;76723.06;4850537;28;101842;-71
2024/01/07 06:24:37;;;;;;;;;4.00;2.67;;;;;-143.90;100.00;76733.41;4847255;28;104938;-71
2024/01/07 06:27:05;;;;;;;;;4.00;3.00;;;;;-143.90;100.00;76733.41;4850786;28;101823;-71
2024/01/07 06:29:32;;;;;;;;;3.67;3.00;;;;;-143.90;100.00;76741.69;4848331;28;102005;-70
2024/01/07 06:31:58;;;;;;;;;10.00;7.67;;;;;-143.90;100.00;76752.03;4853591;28;102265;-71
2024/01/07 06:34:25;;;;;;;;;5.33;5.33;;;;;-143.90;100.00;76760.28;4847140;28;103359;-70
2024/01/07 06:36:52;;;;;;;;;6.33;4.67;;;;;-143.90;100.00;76764.44;4857516;28;102021;-70
2024/01/07 06:39:19;;;;;;;;;9.00;6.00;;;;;-143.90;100.00;76780.97;4852149;28;101940;-72
2024/01/07 06:41:46;;;;;;;;;7.00;7.00;;;;;-143.90;100.00;76787.19;4853525;28;101937;-70
2024/01/07 06:44:13;;;;;;;;;6.00;3.00;;;;;-143.90;100.00;76780.97;4838583;28;103078;-71
2024/01/07 06:46:39;;;;;;;;;3.00;3.00;;;;;-143.90;100.00;76778.91;4854660;28;102405;-71
2024/01/07 06:49:07;;;;;;;;;7.67;6.00;;;;;-143.90;100.00;76778.91;4857877;28;104271;-70
2024/01/07 06:51:33;;;;;;;;;10.67;10.00;;;;;-143.90;100.00;76787.19;4858531;28;101890;-70
2024/01/07 06:54:00;;;;;;;;;7.67;4.00;;;;;-143.90;100.00;76789.25;4857046;28;102452;-71
2024/01/07 06:56:27;;;;;;;;;11.33;6.67;;;;;-143.90;100.00;76789.25;4848962;28;102746;-70
2024/01/07 06:58:54;;;;;;;;;10.67;7.00;;;;;-143.90;100.00;76799.59;4855022;28;103528;-70
2024/01/07 07:01:22;;;;;;;;;7.00;7.00;;;;;-143.90;100.00;76783.03;4858312;28;101763;-69
2024/01/07 07:03:50;;;;;;;;;3.00;3.00;;;;;-143.90;100.00;76789.25;4856199;28;104965;-70
2024/01/07 07:06:17;;;;;;;;;7.67;6.67;;;;;-143.90;100.00;76799.59;4856797;28;101956;-68
2024/01/07 07:08:44;;;;;;;;;4.00;3.33;;;;;-143.90;100.00;76793.38;4848664;28;101944;-70
2024/01/07 07:11:10;;;;;;;;;3.33;1.67;;;;;-143.90;100.00;76803.72;4856508;28;102592;-70
2024/01/07 07:13:38;;;;;;;;;3.00;3.00;;;;;-143.90;100.00;76801.66;4858854;28;104210;-70
2024/01/07 07:16:05;;;;;;;;;5.33;4.00;;;;;-143.90;100.00;76805.78;4853262;28;102089;-67
2024/01/07 07:18:32;;;;;;;;;5.33;2.67;;;;;-143.90;100.00;76797.53;4846058;28;102875;-68
2024/01/07 07:21:00;;;;;;;;;3.00;3.00;;;;;-143.90;100.00;76791.31;4861889;28;101706;-70
2024/01/07 07:23:26;;;;;;;;;6.00;4.00;;;;;-143.90;100.00;76793.38;4859476;28;107840;-68
2024/01/07 07:25:53;;;;;;;;;9.00;6.00;;;;;-143.90;100.00;76799.59;4857906;28;102144;-68
2024/01/07 07:28:20;;;;;;;;;10.00;8.33;;;;;-143.90;100.00;76814.06;4854628;28;101842;-67
2024/01/07 07:30:46;;;;;;;;;7.00;4.67;;;;;-143.90;100.00;76816.13;4853400;28;103165;-68
2024/01/07 07:33:18;;;;;;;;;13.67;7.67;;;;;-143.90;100.00;76826.47;4852283;28;103301;-68
2024/01/07 07:35:46;;;;;;;;;7.00;6.00;;;;;-143.90;100.00;76826.47;4851253;28;101887;-70
2024/01/07 07:38:13;;;;;;;;;4.00;2.67;;;;;-143.90;100.00;76834.75;4852885;28;101912;-68
2024/01/07 07:40:40;;;;;;;;;4.00;3.00;;;;;-143.90;100.00;76824.41;4846501;28;103387;-70
2024/01/07 07:43:07;;;;;;;;;5.33;4.00;;;;;-143.90;100.00;76812.00;4856174;28;104928;-68
2024/01/07 07:45:34;;;;;;;;;3.33;3.00;;;;;-143.90;100.00;76809.94;4835754;28;101928;-67
2024/01/07 07:48:01;;;;;;;;;4.00;4.00;;;;;-143.90;100.00;76814.06;4835587;28;102200;-68
2024/01/07 07:50:27;;;;;;;;;6.67;5.33;;;;;-143.90;100.00;76809.94;4848525;28;101692;-67
2024/01/07 07:52:54;;;;;;;;;6.00;3.00;;;;;-143.90;100.00;76797.53;4859903;28;103622;-67
2024/01/07 07:55:21;;;;;;;;;7.00;3.33;;;;;-143.90;100.00;76801.66;4857178;28;101875;-67
2024/01/07 07:57:48;;;;;;;;;4.00;4.00;;;;;-143.90;100.00;76805.78;4853684;28;102096;-68
2024/01/07 08:00:15;;;;;;;;;7.33;6.67;;;;;-143.90;100.00;76809.94;4855156;28;101973;-68
2024/01/07 08:02:42;;;;;;;;;7.00;6.00;;;;;-143.90;100.00;76814.06;4833769;28;105025;-67
2024/01/07 08:05:08;;;;;;;;;8.00;5.33;;;;;-143.90;100.00;76809.94;4862422;28;101815;-69
2024/01/07 08:07:35;;;;;;;;;6.00;6.00;;;;;-143.90;100.00;76793.38;4849593;28;101886;-68
2024/01/07 08:10:02;;;;;;;;;7.67;6.00;;;;;-143.90;100.00;76799.59;4850172;28;102059;-69
2024/01/07 08:12:29;;;;;;;;;6.00;4.00;;;;;-143.90;100.00;76807.88;4853061;28;108219;-70
2024/01/07 08:14:56;;;;;;;;;4.67;4.67;;;;;-143.90;100.00;76803.72;4861095;28;101967;-68
2024/01/07 08:17:22;;;;;;;;;10.33;4.00;;;;;-143.90;100.00;76816.13;4842751;28;102392;-68
2024/01/07 08:19:52;;;;;;;;;7.67;4.00;;;;;-143.90;100.00;76809.94;4865285;28;101871;-68
2024/01/07 08:22:20;;;;;;;;;6.33;4.67;;;;;-143.90;100.00;76793.38;4857288;28;102828;-69
2024/01/07 08:24:46;;;;;;;;;3.67;3.00;;;;;-143.90;100.00;76793.38;4859182;28;101907;-68
2024/01/07 08:27:13;;;;;;;;;7.00;4.00;;;;;-143.90;100.00;76793.38;4859444;28;102729;-68
2024/01/07 08:29:46;;;;;;;;;5.67;5.33;;;;;-143.90;100.00;76776.84;4864461;28;101958;-68
2024/01/07 08:32:13;;;;;;;;;8.33;5.67;;;;;-143.90;100.00;76807.88;4857097;28;104825;-69
2024/01/07 08:34:39;;;;;;;;;5.33;5.33;;;;;-143.90;100.00;76789.25;4850406;28;101865;-67
2024/01/07 08:37:10;;;;;;;;;10.67;7.67;;;;;-143.90;100.00;76785.13;4863644;28;101729;-67
2024/01/07 08:39:36;;;;;;;;;6.00;4.00;;;;;-143.90;100.00;76776.84;4858795;28;102212;-68
2024/01/07 08:42:04;;;;;;;;;2.00;2.00;;;;;-143.90;100.00;76768.56;4862751;28;103523;-68
2024/01/07 08:44:30;;;;;;;;;6.67;5.00;;;;;-143.90;100.00;76772.72;4859411;28;105067;-68
2024/01/07 08:46:57;;;;;;;;;5.33;5.33;;;;;-143.90;100.00;76774.78;4847072;28;105084;-68
2024/01/07 08:49:24;;;;;;;;;5.33;4.00;;;;;-143.90;100.00;76795.47;4865224;28;103233;-68
2024/01/07 08:51:51;;;;;;;;;2.67;2.00;;;;;-143.90;100.00;76809.94;4862230;28;103610;-69
2024/01/07 08:54:17;;;;;;;;;4.67;4.00;;;;;-143.90;100.00;76797.53;4856117;28;101830;-68
2024/01/07 08:56:45;;;;;;;;;8.00;4.00;;;;;-143.90;100.00;76780.97;4856788;28;101737;-67
2024/01/07 08:59:11;;;;;;;;;4.33;4.00;;;;;-143.90;100.00;76772.72;4861347;28;103099;-68
2024/01/07 09:01:38;;;;;;;;;7.67;4.67;;;;;-143.90;100.00;76785.13;4855442;28;103584;-68
2024/01/07 09:04:05;;;;;;;;;4.33;4.00;;;;;-143.90;100.00;76785.13;4852661;28;102472;-68
2024/01/07 09:06:32;;;;;;;;;6.33;5.00;;;;;-143.90;100.00;76772.72;4856281;28;101777;-69
2024/01/07 09:08:58;;;;;;;;;5.33;4.00;;;;;-143.90;100.00;76776.84;4863567;28;102181;-69
2024/01/07 09:11:25;;;;;;;;;4.00;4.00;;;;;-143.90;100.00;76780.97;4857728;28;102442;-68
2024/01/07 09:13:52;;;;;;;;;4.33;3.33;;;;;-143.90;100.00;76770.63;4844136;28;102003;-69
2024/01/07 09:16:18;;;;;;;;;5.00;3.33;;;;;-143.90;100.00;76787.19;4856998;28;101921;-68
2024/01/07 09:18:46;;;;;;;;;4.00;4.00;;;;;-143.90;100.00;76776.84;4859644;28;102567;-69
2024/01/07 09:21:14;;;;;;;;;10.00;5.33;;;;;-143.90;100.00;76791.31;4857836;28;103091;-68
2024/01/07 09:23:41;;;;;;;;;4.00;2.33;;;;;-143.90;100.00;76766.50;4859917;28;101962;-68
2024/01/07 09:26:08;;;;;;;;;13.33;7.33;;;;;-143.90;100.00;76785.13;4857193;28;102550;-69
2024/01/07 09:28:34;;;;;;;;;7.33;4.33;;;;;-143.90;100.00;76768.56;4856603;28;102175;-68
2024/01/07 09:31:01;;;;;;;;;2.33;2.33;;;;;-143.90;100.00;76745.81;4856790;28;102953;-69
2024/01/07 09:33:28;;;;;;;;;7.00;5.00;;;;;-143.90;100.00;76743.75;4881731;28;102049;-70
2024/01/07 09:35:55;;;;;;;;;7.00;7.00;;;;;-143.90;100.00;76737.53;4883422;28;101648;-68
2024/01/07 09:38:35;;;;;;;;;5.67;2.67;;;;;-143.90;100.00;76721.00;4872759;28;102056;-68
2024/01/07 09:41:02;;;;;;;;;8.00;5.00;;;;;-143.90;100.00;76723.06;4880498;28;103681;-68
2024/01/07 09:43:29;;;;;;;;;4.67;4.67;;;;;-143.90;100.00;76702.38;4874521;28;101808;-69
2024/01/07 09:46:00;;;;;;;;;3.33;3.33;;;;;-143.90;100.00;76696.19;4880647;28;102228;-67
2024/01/07 09:48:27;;;;;;;;;10.00;8.00;;;;;-143.90;100.00;76706.53;4872360;28;102142;-68
2024/01/07 09:50:53;;;;;;;;;9.33;7.33;;;;;-143.90;100.00;76723.06;4883450;28;103634;-69
2024/01/07 09:53:25;;;;;;;;;13.00;11.00;;;;;-143.90;100.00;76735.47;4879146;28;102740;-69
2024/01/07 09:56:10;;;;;;;;;8.00;4.67;;;;;-143.90;100.00;76712.72;4874756;28;103410;-67
2024/01/07 09:58:37;;;;;;;;;7.00;4.00;;;;;-143.90;100.00;76698.25;4872868;28;102200;-68
2024/01/07 10:01:04;;;;;;;;;6.33;6.33;;;;;-143.90;100.00;76658.97;4879878;28;103572;-68
2024/01/07 10:03:31;;;;;;;;;5.00;4.67;;;;;-143.90;100.00;76658.97;4863608;28;103561;-67
2024/01/07 10:05:58;;;;;;;;;8.00;7.33;;;;;-143.90;100.00;76663.09;4880170;28;101938;-68
2024/01/07 10:08:25;;;;;;;;;13.00;8.67;;;;;-143.90;100.00;76652.75;4874654;28;101787;-68
2024/01/07 10:10:57;;;;;;;;;5.00;5.00;;;;;-143.90;100.00;76667.22;4857932;28;103434;-69
2024/01/07 10:13:24;;;;;;;;;10.67;7.67;;;;;-143.90;100.00;76648.63;4876708;28;102811;-68
2024/01/07 10:15:52;;;;;;;;;10.00;8.00;;;;;-143.90;100.00;76638.28;4881576;28;101630;-70
2024/01/07 10:18:19;;;;;;;;;8.67;8.67;;;;;-143.90;100.00;76615.53;4876708;28;102302;-68
2024/01/07 10:20:46;;;;;;;;;7.00;5.00;;;;;-143.90;100.00;76609.31;4872711;28;103651;-68
2024/01/07 10:23:19;;;;;;;;;8.33;7.33;;;;;-143.90;100.00;76605.19;4879152;28;101765;-69
2024/01/07 10:25:46;;;;;;;;;7.33;5.00;;;;;-143.90;100.00;76611.38;4876013;28;101839;-68
2024/01/07 10:28:14;;;;;;;;;9.33;6.33;;;;;-143.90;100.00;76627.94;4879787;28;101993;-69
2024/01/07 10:30:49;;;;;;;;;10.33;7.00;;;;;-143.90;100.00;76617.59;4861285;28;104588;-68
2024/01/07 10:33:18;;;;;;;;;13.67;10.67;;;;;-143.90;100.00;76646.53;4839393;28;102335;-68
2024/01/07 10:35:53;;;;;;;;;7.33;5.67;;;;;-143.90;100.00;76613.47;4862566;28;101646;-68
2024/01/07 10:38:21;;;;;;;;;8.33;5.00;;;;;-143.90;100.00;76607.25;4838220;28;103913;-70
2024/01/07 10:40:52;;;;;;;;;7.33;7.00;;;;;-143.90;100.00;76617.59;4857068;28;105395;-70
2024/01/07 10:43:19;;;;;;;;;9.33;9.00;;;;;-143.90;100.00;76603.13;4860545;28;102290;-70
2024/01/07 10:45:48;;;;;;;;;12.00;9.33;;;;;-143.90;100.00;76640.34;4860931;28;101790;-71
2024/01/07 10:48:19;;;;;;;;;11.67;11.00;;;;;-143.90;100.00;76665.16;4858147;28;101815;-69
2024/01/07 10:50:50;;;;;;;;;14.33;9.67;;;;;-143.90;100.00;76646.53;4853437;28;103761;-69
2024/01/07 10:53:21;;;;;;;;;13.00;11.00;;;;;-143.90;100.00;76656.88;4854159;28;101969;-70
2024/01/07 10:55:59;;;;;;;;;8.00;7.67;;;;;-143.90;100.00;76636.22;4844141;28;102050;-69
2024/01/07 10:58:26;;;;;;;;;10.00;8.00;;;;;-143.90;100.00;76625.88;4852092;28;102373;-69